Airfield :
LOGIN :

Register | Disclaimer

   EN    FR    IT 

 










Legend :    VFR   Marginal VFR   IFR   Intensive IFR   Very Intensive IFR
Visi :
Ceiling :
>= 8 km
>= 3000ft
5 to 8 km
1000 to 3000 ft
1500m to 5 km
500 to 1000 ft
800 to 1500m
200 to 500 ft
< 800m
< 200 ft
Symbols :   Thunderstorms  Fog  Heavy snow  Heavy precipitations  Wind > 20 kt
SIGMETs :     Misc.  Thunderstorms  Icing  Turbulence  Mountain Waves  Volcanic Ashes






- Airport Elevation : 7 ft
- IATA code : XHE


LFTH - Hyeres

CURRENT METAR :
  • 261700Z AUTO 10006KT CAVOK 23/13 Q1023 NOSIG

EXPIRED METARs :
  • 261630Z AUTO 11007KT 080V150 CAVOK 24/13 Q1023 NOSIG
  • 261600Z AUTO 10010KT 080V140 CAVOK 24/13 Q1023 NOSIG
  • 261530Z AUTO 11007KT 080V140 CAVOK 24/11 Q1023 NOSIG
  • 261500Z AUTO 12007KT 090V160 CAVOK 23/16 Q1024 NOSIG
  • 261430Z AUTO 13007KT 090V180 CAVOK 25/12 Q1024 NOSIG

TAF TAF LFTH
Valid from the 26 at 15:00 until the 27 at 15:00 UTC


261400Z 2615/2715 12010KT CAVOK
BECMG 2619/2620 VRB03KT
BECMG 2707/2708 08010KT
BECMG 2709/2711 11012G22KT



MET'MAP, your aeronautical weather chart ! - Copyright ORBIFLY December 2007 - Disclaimer

ORBIFLY MET'MAP TEAM :

Programming & Development : Alexandra Zaïnal
Concept & original design : Baudouin d'Aumeries
Assistance for programming : Marc-Olivier Méhu
Technical & hardware support : Manuel Goepfert

Contact : metmap@orbifly.com




SOURCES & CREDITS :

   NOAA